Time;durP1;ratioP1;P1;durP2;ratioP2;P2;SDS_P1;SDS_P2;PMS_P1;PMS_P2;Temp;Humidity;BMP_temperature;BMP_pressure;BME280_temperature;BME280_humidity;BME280_pressure;Samples;Min_cycle;Max_cycle;Signal;HPM_P1;HPM_P2
2022/08/05 00:00:58;;;;;;;1.92;1.40;;;;;;;;;;5074439;28;20415;-83
2022/08/05 00:03:25;;;;;;;1.55;1.45;;;;;;;;;;5074600;28;20372;-83
2022/08/05 00:05:50;;;;;;;2.35;1.90;;;;;;;;;;5074128;28;20372;-83
2022/08/05 00:08:18;;;;;;;3.15;1.85;;;;;;;;;;5074455;28;20433;-85
2022/08/05 00:10:44;;;;;;;1.60;1.50;;;;;;;;;;5074316;28;20382;-84
2022/08/05 00:13:10;;;;;;;2.20;1.63;;;;;;;;;;5074397;28;20422;-84
2022/08/05 00:15:36;;;;;;;1.98;1.40;;;;;;;;;;5074300;28;20386;-84
2022/08/05 00:18:02;;;;;;;1.58;1.48;;;;;;;;;;5074273;28;20498;-84
2022/08/05 00:20:28;;;;;;;2.00;1.67;;;;;;;;;;5074210;28;20470;-84
2022/08/05 00:22:54;;;;;;;1.65;1.55;;;;;;;;;;5074071;28;20387;-84
2022/08/05 00:25:20;;;;;;;1.55;1.45;;;;;;;;;;5074184;28;20375;-84
2022/08/05 00:27:46;;;;;;;1.67;1.48;;;;;;;;;;5055747;28;20393;-84
2022/08/05 00:30:12;;;;;;;2.28;1.42;;;;;;;;;;5073955;28;20861;-84
2022/08/05 00:32:38;;;;;;;1.88;1.40;;;;;;;;;;5073939;28;20387;-84
2022/08/05 00:35:04;;;;;;;2.20;1.33;;;;;;;;;;5073895;28;20394;-84
2022/08/05 00:37:30;;;;;;;1.83;1.30;;;;;;;;;;5068300;28;20445;-83
2022/08/05 00:39:56;;;;;;;1.50;1.40;;;;;;;;;;5073659;28;20407;-84
2022/08/05 00:42:32;;;;;;;1.80;1.40;;;;;;;;;;5073813;28;20402;-84
2022/08/05 00:44:58;;;;;;;1.55;1.42;;;;;;;;;;5073587;28;20411;-83
2022/08/05 00:47:24;;;;;;;1.83;1.40;;;;;;;;;;5073588;28;20411;-84
2022/08/05 00:49:50;;;;;;;1.63;1.40;;;;;;;;;;5073582;28;20560;-84
2022/08/05 00:52:16;;;;;;;1.40;1.30;;;;;;;;;;5069409;28;20892;-84
2022/08/05 00:54:42;;;;;;;1.93;1.40;;;;;;;;;;5073544;28;20380;-84
2022/08/05 00:57:08;;;;;;;1.53;1.43;;;;;;;;;;5073307;28;20860;-84
2022/08/05 00:59:34;;;;;;;2.30;1.40;;;;;;;;;;5073344;28;20380;-84
2022/08/05 01:02:00;;;;;;;1.60;1.50;;;;;;;;;;5073366;28;20916;-85
2022/08/05 01:04:26;;;;;;;2.20;1.60;;;;;;;;;;5073342;28;20382;-84
2022/08/05 01:06:52;;;;;;;2.43;1.40;;;;;;;;;;5061016;28;20931;-84
2022/08/05 01:09:18;;;;;;;2.07;1.70;;;;;;;;;;5071510;28;20388;-85
2022/08/05 01:11:47;;;;;;;2.13;1.40;;;;;;;;;;5073263;28;20384;-85
2022/08/05 01:14:17;;;;;;;2.37;1.30;;;;;;;;;;5073054;28;20433;-85
2022/08/05 01:16:56;;;;;;;2.17;1.45;;;;;;;;;;5072973;28;20836;-85
2022/08/05 01:19:23;;;;;;;1.58;1.48;;;;;;;;;;5072923;28;20368;-85
2022/08/05 01:22:07;;;;;;;2.30;1.50;;;;;;;;;;5066539;28;20987;-84
2022/08/05 01:24:51;;;;;;;1.60;1.50;;;;;;;;;;5068421;28;20740;-85
2022/08/05 01:27:35;;;;;;;2.63;1.50;;;;;;;;;;5072840;28;20400;-84
2022/08/05 01:30:03;;;;;;;1.60;1.50;;;;;;;;;;5072857;28;20379;-85
2022/08/05 01:32:31;;;;;;;1.60;1.50;;;;;;;;;;5072819;28;20391;-84
2022/08/05 01:34:59;;;;;;;1.73;1.35;;;;;;;;;;5072747;28;20783;-85
2022/08/05 01:37:32;;;;;;;1.63;1.30;;;;;;;;;;5072472;28;20406;-84
2022/08/05 01:39:58;;;;;;;1.60;1.50;;;;;;;;;;5060699;28;20407;-85
2022/08/05 01:42:25;;;;;;;1.92;1.40;;;;;;;;;;5053930;28;20386;-85
2022/08/05 01:44:54;;;;;;;1.88;1.73;;;;;;;;;;5049753;28;20396;-82
2022/08/05 01:47:21;;;;;;;1.80;1.70;;;;;;;;;;5060706;28;20379;-85
2022/08/05 01:49:49;;;;;;;1.77;1.67;;;;;;;;;;5071186;28;20467;-83
2022/08/05 01:52:16;;;;;;;2.08;1.80;;;;;;;;;;5057250;28;20742;-83
2022/08/05 01:54:44;;;;;;;2.33;1.90;;;;;;;;;;5072537;28;20432;-83
2022/08/05 01:57:11;;;;;;;1.90;1.70;;;;;;;;;;5072350;28;20521;-83
2022/08/05 01:59:39;;;;;;;1.98;1.80;;;;;;;;;;5072579;28;20392;-83
2022/08/05 02:02:05;;;;;;;2.10;1.90;;;;;;;;;;5072539;28;20729;-83
2022/08/05 02:04:34;;;;;;;3.80;2.03;;;;;;;;;;5072119;28;20438;-83
2022/08/05 02:07:00;;;;;;;2.13;1.90;;;;;;;;;;5072236;28;20946;-83
2022/08/05 02:09:26;;;;;;;2.08;1.88;;;;;;;;;;5072215;28;20379;-83
2022/08/05 02:11:55;;;;;;;2.00;1.90;;;;;;;;;;5072346;28;20379;-83
2022/08/05 02:14:26;;;;;;;2.50;2.03;;;;;;;;;;5072262;28;20437;-84
2022/08/05 02:16:54;;;;;;;1.70;1.60;;;;;;;;;;5072105;28;20408;-84
2022/08/05 02:19:24;;;;;;;2.13;1.90;;;;;;;;;;5072085;28;20380;-84
2022/08/05 02:21:53;;;;;;;2.05;1.90;;;;;;;;;;5059503;28;20774;-83
2022/08/05 02:24:22;;;;;;;2.80;1.87;;;;;;;;;;5068100;28;20383;-83
2022/08/05 02:26:53;;;;;;;3.20;2.03;;;;;;;;;;5072017;28;20419;-83
2022/08/05 02:29:23;;;;;;;3.13;1.80;;;;;;;;;;5072091;28;20948;-83
2022/08/05 02:31:49;;;;;;;2.35;1.90;;;;;;;;;;5072047;28;20928;-84
2022/08/05 02:34:16;;;;;;;2.08;1.80;;;;;;;;;;5072146;28;20399;-83
2022/08/05 02:36:45;;;;;;;2.05;1.85;;;;;;;;;;5071662;28;20399;-84
2022/08/05 02:39:11;;;;;;;1.83;1.70;;;;;;;;;;5071996;28;20376;-83
2022/08/05 02:41:38;;;;;;;3.20;1.80;;;;;;;;;;5072014;28;20404;-83
2022/08/05 02:44:09;;;;;;;1.80;1.70;;;;;;;;;;5071842;28;20415;-83
2022/08/05 02:46:39;;;;;;;2.80;1.93;;;;;;;;;;5071812;28;20459;-83
2022/08/05 02:49:06;;;;;;;1.98;1.75;;;;;;;;;;5071947;28;20379;-83
2022/08/05 02:51:33;;;;;;;2.00;1.80;;;;;;;;;;5056943;28;20468;-83
2022/08/05 02:53:59;;;;;;;1.83;1.70;;;;;;;;;;5065717;28;20794;-84
2022/08/05 02:56:26;;;;;;;2.07;1.90;;;;;;;;;;5075930;28;20736;-84
2022/08/05 02:58:52;;;;;;;2.17;1.80;;;;;;;;;;5075706;28;20462;-84
2022/08/05 03:01:20;;;;;;;2.07;1.80;;;;;;;;;;5067091;28;20416;-84
2022/08/05 03:03:48;;;;;;;2.80;1.88;;;;;;;;;;5055895;28;20515;-84
2022/08/05 03:06:15;;;;;;;2.00;1.70;;;;;;;;;;5071931;28;20380;-84
2022/08/05 03:08:42;;;;;;;1.80;1.70;;;;;;;;;;5075397;28;20460;-84
2022/08/05 03:11:18;;;;;;;2.25;1.80;;;;;;;;;;5075440;28;20454;-84
2022/08/05 03:13:44;;;;;;;1.83;1.73;;;;;;;;;;5075319;28;20384;-84
2022/08/05 03:16:10;;;;;;;4.05;1.88;;;;;;;;;;5064206;28;20391;-84
2022/08/05 03:18:37;;;;;;;2.47;1.80;;;;;;;;;;5064450;28;20381;-85
2022/08/05 03:21:03;;;;;;;2.25;1.70;;;;;;;;;;5058240;28;20763;-85
2022/08/05 03:23:29;;;;;;;2.03;1.67;;;;;;;;;;5075427;28;20467;-85
2022/08/05 03:25:55;;;;;;;2.03;1.53;;;;;;;;;;5073598;28;20383;-85
2022/08/05 03:28:21;;;;;;;1.80;1.70;;;;;;;;;;5062454;28;20733;-85
2022/08/05 03:30:48;;;;;;;2.08;1.98;;;;;;;;;;5075160;28;20386;-84
2022/08/05 03:33:14;;;;;;;2.00;1.60;;;;;;;;;;5075143;28;20534;-84
2022/08/05 03:35:40;;;;;;;2.00;1.80;;;;;;;;;;5073658;28;20402;-84
2022/08/05 03:38:06;;;;;;;1.55;1.45;;;;;;;;;;5070376;28;20903;-85
2022/08/05 03:40:32;;;;;;;1.73;1.63;;;;;;;;;;5074923;28;20503;-84
2022/08/05 03:42:58;;;;;;;2.17;1.70;;;;;;;;;;5074729;28;20752;-84
2022/08/05 03:45:24;;;;;;;1.70;1.60;;;;;;;;;;5070908;28;20482;-85
2022/08/05 03:47:50;;;;;;;1.70;1.42;;;;;;;;;;5060528;28;20432;-84
2022/08/05 03:50:17;;;;;;;2.25;1.50;;;;;;;;;;5074590;28;20747;-85
2022/08/05 03:53:12;;;;;;;2.63;1.77;;;;;;;;;;5074780;28;20380;-85
2022/08/05 03:55:40;;;;;;;2.25;1.80;;;;;;;;;;5061467;28;20868;-85
2022/08/05 03:58:09;;;;;;;3.63;2.50;;;;;;;;;;5074654;28;20429;-84
2022/08/05 04:00:35;;;;;;;2.53;1.88;;;;;;;;;;5074470;28;20734;-84
2022/08/05 04:03:02;;;;;;;2.00;1.65;;;;;;;;;;5073740;28;20380;-85
2022/08/05 04:05:32;;;;;;;2.63;1.77;;;;;;;;;;5074410;28;20379;-84
2022/08/05 04:07:59;;;;;;;1.60;1.50;;;;;;;;;;5074378;28;20422;-85
2022/08/05 04:10:28;;;;;;;1.88;1.52;;;;;;;;;;5074389;28;20383;-84
2022/08/05 04:12:54;;;;;;;2.07;1.60;;;;;;;;;;5074658;28;20428;-85
2022/08/05 04:15:21;;;;;;;2.45;1.52;;;;;;;;;;5074315;28;20384;-84
2022/08/05 04:17:47;;;;;;;1.90;1.80;;;;;;;;;;5074151;28;20853;-85
2022/08/05 04:20:17;;;;;;;1.70;1.60;;;;;;;;;;5074154;28;20441;-85
2022/08/05 04:22:43;;;;;;;1.80;1.70;;;;;;;;;;5066106;28;20394;-84
2022/08/05 04:25:09;;;;;;;3.00;1.60;;;;;;;;;;5074373;28;20451;-85
2022/08/05 04:27:35;;;;;;;1.60;1.50;;;;;;;;;;5069872;28;20436;-85
2022/08/05 04:30:01;;;;;;;2.75;1.90;;;;;;;;;;5047119;28;20377;-84
2022/08/05 04:32:27;;;;;;;1.58;1.48;;;;;;;;;;5053869;28;20377;-85
2022/08/05 04:34:53;;;;;;;3.63;1.85;;;;;;;;;;5053529;28;20459;-84
2022/08/05 04:37:19;;;;;;;1.60;1.50;;;;;;;;;;5064585;28;20873;-84
2022/08/05 04:39:45;;;;;;;1.70;1.60;;;;;;;;;;5073542;28;20423;-85
2022/08/05 04:42:11;;;;;;;2.28;1.60;;;;;;;;;;5073002;28;20442;-84
2022/08/05 04:44:37;;;;;;;1.98;1.75;;;;;;;;;;5073641;28;20391;-85
2022/08/05 04:47:04;;;;;;;1.85;1.65;;;;;;;;;;5073696;28;20452;-85
2022/08/05 04:49:29;;;;;;;2.30;1.75;;;;;;;;;;5073760;28;20374;-84
2022/08/05 04:51:55;;;;;;;3.05;2.75;;;;;;;;;;5073440;28;20380;-85
2022/08/05 04:54:25;;;;;;;2.20;2.00;;;;;;;;;;5073598;28;20381;-84
2022/08/05 04:56:51;;;;;;;2.40;2.20;;;;;;;;;;5073516;28;20430;-85
2022/08/05 04:59:19;;;;;;;2.33;2.13;;;;;;;;;;5067748;28;20391;-85
2022/08/05 05:01:45;;;;;;;2.58;2.17;;;;;;;;;;5073287;28;20476;-84
2022/08/05 05:04:11;;;;;;;2.93;1.93;;;;;;;;;;5073301;28;20411;-85
2022/08/05 05:06:37;;;;;;;2.47;2.00;;;;;;;;;;5065148;28;20424;-85
2022/08/05 05:09:03;;;;;;;2.95;1.83;;;;;;;;;;5056998;28;20408;-81
2022/08/05 05:11:29;;;;;;;2.35;1.77;;;;;;;;;;5073266;28;20387;-82
2022/08/05 05:13:55;;;;;;;2.40;1.83;;;;;;;;;;5073055;28;20395;-82
2022/08/05 05:16:21;;;;;;;2.67;1.92;;;;;;;;;;5068525;28;20424;-82
2022/08/05 05:18:47;;;;;;;2.08;1.92;;;;;;;;;;5057299;28;20423;-81
2022/08/05 05:21:13;;;;;;;2.15;1.95;;;;;;;;;;5069289;28;20904;-81
2022/08/05 05:23:40;;;;;;;3.47;2.20;;;;;;;;;;5052585;28;20373;-82
2022/08/05 05:26:06;;;;;;;2.13;2.00;;;;;;;;;;5069318;28;20372;-81
2022/08/05 05:28:32;;;;;;;3.42;2.30;;;;;;;;;;5064370;28;20413;-81
2022/08/05 05:30:58;;;;;;;2.15;1.95;;;;;;;;;;5067439;28;20375;-81
2022/08/05 05:33:24;;;;;;;3.75;2.35;;;;;;;;;;5057827;28;20412;-82
2022/08/05 05:35:50;;;;;;;2.30;1.92;;;;;;;;;;5065491;28;20384;-81
2022/08/05 05:38:17;;;;;;;3.78;2.10;;;;;;;;;;5072493;28;20884;-82
2022/08/05 05:40:43;;;;;;;3.50;2.00;;;;;;;;;;5062106;28;20492;-83
2022/08/05 05:43:09;;;;;;;3.70;2.00;;;;;;;;;;5055889;28;20457;-83
2022/08/05 05:45:35;;;;;;;4.38;2.20;;;;;;;;;;5061536;28;20852;-82
2022/08/05 05:48:04;;;;;;;3.30;2.15;;;;;;;;;;5072333;28;20471;-84
2022/08/05 05:50:31;;;;;;;3.50;2.00;;;;;;;;;;5072074;28;20387;-81
2022/08/05 05:52:56;;;;;;;3.50;2.10;;;;;;;;;;5065758;28;20780;-81
2022/08/05 05:55:22;;;;;;;2.92;1.98;;;;;;;;;;5072139;28;20437;-82
2022/08/05 05:57:49;;;;;;;3.92;2.00;;;;;;;;;;5072293;28;20395;-82
2022/08/05 06:00:18;;;;;;;3.65;2.15;;;;;;;;;;5072267;28;20404;-82
2022/08/05 06:02:46;;;;;;;4.18;2.22;;;;;;;;;;5045067;28;20842;-82
2022/08/05 06:05:12;;;;;;;3.33;2.05;;;;;;;;;;5072290;28;20457;-82
2022/08/05 06:07:39;;;;;;;2.67;1.95;;;;;;;;;;5072159;28;20411;-82
2022/08/05 06:10:05;;;;;;;2.38;2.00;;;;;;;;;;5072304;28;20471;-81
2022/08/05 06:12:32;;;;;;;2.22;2.00;;;;;;;;;;5072156;28;20388;-82
2022/08/05 06:15:00;;;;;;;2.45;2.20;;;;;;;;;;5072222;28;20376;-82
2022/08/05 06:17:26;;;;;;;2.15;1.67;;;;;;;;;;5072027;28;20380;-82
2022/08/05 06:19:52;;;;;;;2.28;1.77;;;;;;;;;;5072124;28;20452;-82
2022/08/05 06:22:25;;;;;;;2.13;1.65;;;;;;;;;;5066591;28;20712;-82
2022/08/05 06:24:51;;;;;;;2.00;1.70;;;;;;;;;;5058558;28;20371;-82
2022/08/05 06:27:17;;;;;;;3.17;1.60;;;;;;;;;;5059815;28;20397;-82
2022/08/05 06:29:43;;;;;;;1.85;1.60;;;;;;;;;;5062240;28;20415;-82
2022/08/05 06:32:10;;;;;;;1.60;1.50;;;;;;;;;;5078760;28;20383;-81
2022/08/05 06:34:36;;;;;;;1.92;1.40;;;;;;;;;;5078563;28;20372;-82
2022/08/05 06:37:02;;;;;;;3.03;1.40;;;;;;;;;;5078699;28;20392;-82
2022/08/05 06:39:28;;;;;;;1.60;1.50;;;;;;;;;;5078962;28;20728;-82
2022/08/05 06:41:56;;;;;;;1.52;1.30;;;;;;;;;;5078733;28;20407;-80
2022/08/05 06:44:22;;;;;;;2.67;1.63;;;;;;;;;;5078612;28;20372;-82
2022/08/05 06:46:49;;;;;;;1.40;1.30;;;;;;;;;;5078081;28;20477;-80
2022/08/05 06:49:15;;;;;;;1.70;1.38;;;;;;;;;;5078654;28;20383;-81
2022/08/05 06:51:41;;;;;;;1.65;1.50;;;;;;;;;;5078558;28;20787;-82
2022/08/05 06:54:07;;;;;;;1.60;1.50;;;;;;;;;;5078330;28;20380;-80
2022/08/05 06:56:33;;;;;;;1.60;1.50;;;;;;;;;;5078515;28;20380;-80
2022/08/05 06:58:59;;;;;;;2.67;1.70;;;;;;;;;;5078549;28;20372;-80
2022/08/05 07:01:25;;;;;;;2.15;1.92;;;;;;;;;;5068370;28;20409;-81
2022/08/05 07:03:51;;;;;;;2.08;1.60;;;;;;;;;;5059820;28;20393;-81
2022/08/05 07:06:17;;;;;;;1.65;1.50;;;;;;;;;;5074920;28;20384;-82
2022/08/05 07:08:44;;;;;;;3.15;1.70;;;;;;;;;;5065392;28;20719;-82
2022/08/05 07:11:10;;;;;;;3.13;1.65;;;;;;;;;;5062294;28;20879;-82
2022/08/05 07:19:06;;;;;;;2.50;1.70;;;;;;;;;;5070537;28;21018;-82
2022/08/05 07:21:32;;;;;;;2.70;1.90;;;;;;;;;;5072235;28;20399;-82
2022/08/05 07:23:58;;;;;;;2.70;1.65;;;;;;;;;;5075139;28;20377;-82
2022/08/05 07:26:24;;;;;;;2.03;1.70;;;;;;;;;;5071476;28;20377;-82
2022/08/05 07:28:49;;;;;;;1.80;1.70;;;;;;;;;;5055941;28;20381;-83
2022/08/05 07:31:16;;;;;;;2.10;1.90;;;;;;;;;;5061884;28;20771;-83
2022/08/05 07:33:42;;;;;;;2.30;1.85;;;;;;;;;;5059759;28;20746;-83
2022/08/05 07:36:08;;;;;;;2.28;1.95;;;;;;;;;;5059660;28;20389;-83
2022/08/05 07:38:35;;;;;;;3.00;1.88;;;;;;;;;;5069906;28;20391;-83
2022/08/05 07:41:09;;;;;;;2.95;1.75;;;;;;;;;;5056176;28;20901;-82
2022/08/05 07:43:35;;;;;;;2.33;2.03;;;;;;;;;;5062554;28;20399;-82
2022/08/05 07:46:01;;;;;;;1.87;1.73;;;;;;;;;;5069509;28;20371;-83
2022/08/05 07:48:27;;;;;;;2.40;1.87;;;;;;;;;;5061860;28;20391;-83
2022/08/05 07:50:53;;;;;;;2.88;2.15;;;;;;;;;;5073740;28;20409;-83
2022/08/05 07:53:19;;;;;;;2.80;1.95;;;;;;;;;;5061673;28;20386;-83
2022/08/05 07:55:45;;;;;;;4.47;1.90;;;;;;;;;;5073340;28;20740;-84
2022/08/05 07:58:11;;;;;;;2.45;2.00;;;;;;;;;;5069794;28;20387;-83
2022/08/05 08:00:37;;;;;;;3.53;1.85;;;;;;;;;;5073114;28;20407;-84
2022/08/05 08:03:09;;;;;;;2.67;1.70;;;;;;;;;;5074042;28;20387;-83
2022/08/05 08:05:35;;;;;;;4.32;2.15;;;;;;;;;;5059809;28;20370;-83
2022/08/05 08:08:01;;;;;;;3.30;2.78;;;;;;;;;;5068704;28;20385;-82
2022/08/05 08:10:28;;;;;;;2.75;1.88;;;;;;;;;;5070272;28;20386;-82
2022/08/05 08:12:54;;;;;;;4.05;2.20;;;;;;;;;;5074252;28;20457;-83
2022/08/05 08:15:20;;;;;;;3.70;1.90;;;;;;;;;;5074378;28;20877;-83
2022/08/05 08:17:46;;;;;;;4.15;2.08;;;;;;;;;;5074155;28;20376;-84
2022/08/05 08:20:12;;;;;;;3.30;1.98;;;;;;;;;;5066764;28;20424;-83
2022/08/05 08:22:38;;;;;;;2.67;2.08;;;;;;;;;;5059265;28;20391;-82
2022/08/05 08:25:05;;;;;;;2.85;1.90;;;;;;;;;;5073774;28;20371;-83
2022/08/05 08:27:32;;;;;;;3.92;1.95;;;;;;;;;;5051882;28;20844;-86
2022/08/05 08:29:58;;;;;;;2.00;1.80;;;;;;;;;;5073884;28;20384;-86
2022/08/05 08:32:24;;;;;;;4.68;1.73;;;;;;;;;;5070582;28;20411;-84
2022/08/05 08:34:50;;;;;;;3.03;2.08;;;;;;;;;;5073444;28;20471;-83
2022/08/05 08:37:16;;;;;;;5.20;2.00;;;;;;;;;;5073605;28;20391;-83
2022/08/05 08:39:42;;;;;;;2.60;1.80;;;;;;;;;;5073563;28;20911;-83
2022/08/05 08:42:09;;;;;;;2.80;1.73;;;;;;;;;;5073226;28;20871;-82
2022/08/05 08:44:36;;;;;;;3.70;1.90;;;;;;;;;;5061500;28;20381;-83
2022/08/05 08:47:06;;;;;;;2.60;1.85;;;;;;;;;;5072422;28;20384;-83
2022/08/05 08:49:33;;;;;;;3.80;1.90;;;;;;;;;;5067362;28;20435;-85
2022/08/05 08:52:11;;;;;;;4.43;2.00;;;;;;;;;;5056292;28;20388;-85
2022/08/05 08:54:37;;;;;;;2.53;1.75;;;;;;;;;;5073573;28;20372;-87
2022/08/05 08:57:06;;;;;;;4.20;2.13;;;;;;;;;;5071688;28;20375;-86
2022/08/05 08:59:33;;;;;;;4.35;1.95;;;;;;;;;;5048017;28;20777;-89
2022/08/05 09:01:59;;;;;;;3.10;1.90;;;;;;;;;;5061659;28;20892;-83
2022/08/05 09:04:26;;;;;;;2.15;1.95;;;;;;;;;;5054563;28;20392;-85
2022/08/05 09:06:52;;;;;;;4.93;1.93;;;;;;;;;;5065157;28;20388;-88
2022/08/05 09:09:18;;;;;;;3.53;2.10;;;;;;;;;;5073018;28;20873;-87
2022/08/05 09:11:44;;;;;;;4.20;1.90;;;;;;;;;;5071610;28;20383;-86
2022/08/05 09:14:11;;;;;;;3.27;1.80;;;;;;;;;;5057773;28;20439;-87
2022/08/05 09:16:38;;;;;;;2.92;1.77;;;;;;;;;;5051375;28;20389;-87
2022/08/05 09:19:07;;;;;;;3.70;1.80;;;;;;;;;;5052718;28;20381;-87
2022/08/05 09:21:33;;;;;;;2.42;1.90;;;;;;;;;;5059135;28;20498;-87
2022/08/05 09:24:07;;;;;;;2.85;1.90;;;;;;;;;;5063626;28;20385;-86
2022/08/05 09:26:33;;;;;;;2.35;2.13;;;;;;;;;;5059298;28;20707;-88
2022/08/05 09:29:03;;;;;;;2.13;1.80;;;;;;;;;;5060363;28;20409;-87
2022/08/05 09:31:29;;;;;;;3.33;2.00;;;;;;;;;;5065618;28;20388;-87
2022/08/05 09:34:00;;;;;;;2.28;2.08;;;;;;;;;;5072802;28;20737;-85
2022/08/05 09:36:38;;;;;;;2.20;2.00;;;;;;;;;;5058174;28;20791;-84
2022/08/05 09:39:05;;;;;;;4.63;2.20;;;;;;;;;;5072585;28;20391;-84
2022/08/05 09:41:31;;;;;;;3.22;2.05;;;;;;;;;;5072457;28;20400;-88
2022/08/05 09:43:57;;;;;;;3.15;1.90;;;;;;;;;;5072550;28;20711;-84
2022/08/05 09:46:27;;;;;;;3.08;2.10;;;;;;;;;;5058160;28;20376;-86
2022/08/05 09:48:54;;;;;;;2.90;1.80;;;;;;;;;;5072599;28;20405;-88
2022/08/05 09:51:36;;;;;;;2.53;2.20;;;;;;;;;;5062008;28;20858;-85
2022/08/05 09:54:06;;;;;;;3.50;1.88;;;;;;;;;;5074093;28;20379;-82
2022/08/05 09:56:32;;;;;;;5.00;2.00;;;;;;;;;;5055835;28;20708;-82
2022/08/05 09:58:58;;;;;;;4.50;2.00;;;;;;;;;;5056268;28;20395;-81
2022/08/05 10:01:24;;;;;;;3.28;2.08;;;;;;;;;;5062584;28;20413;-81
2022/08/05 10:03:55;;;;;;;5.57;2.22;;;;;;;;;;5057175;28;20385;-82
2022/08/05 10:06:21;;;;;;;2.75;1.90;;;;;;;;;;5057500;28;20420;-81
2022/08/05 10:08:48;;;;;;;1.98;1.77;;;;;;;;;;5060965;28;20409;-81
2022/08/05 10:11:15;;;;;;;2.45;1.80;;;;;;;;;;5053138;28;20747;-82
2022/08/05 10:13:42;;;;;;;3.92;2.17;;;;;;;;;;5051572;28;20464;-82
2022/08/05 10:16:27;;;;;;;3.30;1.70;;;;;;;;;;5058203;28;20799;-81
2022/08/05 10:18:54;;;;;;;2.78;2.10;;;;;;;;;;5057734;28;20378;-79
2022/08/05 10:21:20;;;;;;;5.38;2.05;;;;;;;;;;5062319;28;20423;-80
2022/08/05 10:23:46;;;;;;;3.83;2.10;;;;;;;;;;5052407;28;20461;-80
2022/08/05 10:26:13;;;;;;;5.20;2.03;;;;;;;;;;5068213;28;20485;-79
2022/08/05 10:28:40;;;;;;;3.13;2.10;;;;;;;;;;5072292;28;20379;-80
2022/08/05 10:31:06;;;;;;;3.70;2.17;;;;;;;;;;5072061;28;20462;-81
2022/08/05 10:33:33;;;;;;;4.95;2.20;;;;;;;;;;5055013;28;20383;-82
2022/08/05 10:36:00;;;;;;;2.97;2.00;;;;;;;;;;5071972;28;20466;-80
2022/08/05 10:38:28;;;;;;;3.28;2.30;;;;;;;;;;5072053;28;20386;-80
2022/08/05 10:40:53;;;;;;;3.67;2.30;;;;;;;;;;5066349;28;20411;-81
2022/08/05 10:43:28;;;;;;;5.70;2.22;;;;;;;;;;5071915;28;20471;-80
2022/08/05 10:45:56;;;;;;;4.03;1.90;;;;;;;;;;5071737;28;20380;-81
2022/08/05 10:48:29;;;;;;;3.17;2.05;;;;;;;;;;5068216;28;20866;-81
2022/08/05 10:51:01;;;;;;;2.60;1.73;;;;;;;;;;5063106;28;20375;-80
2022/08/05 10:53:35;;;;;;;2.60;1.85;;;;;;;;;;5071969;28;20387;-80
2022/08/05 10:56:02;;;;;;;4.55;2.13;;;;;;;;;;5071910;28;20740;-80
2022/08/05 10:58:28;;;;;;;2.37;1.83;;;;;;;;;;5071944;28;20380;-80
2022/08/05 11:00:55;;;;;;;3.13;1.77;;;;;;;;;;5062935;28;20454;-80
2022/08/05 11:03:21;;;;;;;3.83;2.00;;;;;;;;;;5062977;28;20428;-80
2022/08/05 11:06:05;;;;;;;3.25;2.10;;;;;;;;;;5070541;28;20438;-81
2022/08/05 11:08:32;;;;;;;3.00;2.05;;;;;;;;;;5066248;28;20985;-83
2022/08/05 11:11:18;;;;;;;3.90;2.22;;;;;;;;;;5055257;28;20387;-80
2022/08/05 11:13:44;;;;;;;3.63;2.08;;;;;;;;;;5073316;28;20375;-80
2022/08/05 11:16:23;;;;;;;2.65;1.88;;;;;;;;;;5075404;28;20791;-80
2022/08/05 11:19:08;;;;;;;4.18;2.05;;;;;;;;;;5075101;28;20387;-81
2022/08/05 11:21:35;;;;;;;2.85;1.92;;;;;;;;;;5068725;28;20401;-83
2022/08/05 11:24:10;;;;;;;4.88;2.03;;;;;;;;;;5068754;28;20384;-83
2022/08/05 11:26:36;;;;;;;3.38;2.22;;;;;;;;;;5073829;28;20723;-84
2022/08/05 11:29:04;;;;;;;2.20;2.00;;;;;;;;;;5073658;28;20871;-85
2022/08/05 11:31:31;;;;;;;1.93;1.60;;;;;;;;;;5070157;28;20855;-85
2022/08/05 11:34:01;;;;;;;2.30;1.83;;;;;;;;;;5055246;28;20906;-85
2022/08/05 11:36:40;;;;;;;2.15;1.70;;;;;;;;;;5071340;28;20400;-85
2022/08/05 11:39:07;;;;;;;3.00;1.83;;;;;;;;;;5058310;28;20465;-86
2022/08/05 11:41:35;;;;;;;2.80;1.90;;;;;;;;;;5074819;28;20396;-86
2022/08/05 11:44:13;;;;;;;2.72;1.80;;;;;;;;;;5066396;28;20415;-86
2022/08/05 11:46:46;;;;;;;2.53;2.13;;;;;;;;;;5071714;28;20424;-83
2022/08/05 11:49:13;;;;;;;3.95;2.20;;;;;;;;;;5070398;28;20390;-85
2022/08/05 11:51:41;;;;;;;2.30;2.10;;;;;;;;;;5063684;28;20858;-86
2022/08/05 11:54:07;;;;;;;2.55;2.05;;;;;;;;;;5054553;28;20404;-85
2022/08/05 11:56:44;;;;;;;2.50;1.85;;;;;;;;;;5068851;28;20392;-86
2022/08/05 11:59:17;;;;;;;4.72;2.17;;;;;;;;;;5057827;28;20385;-85
2022/08/05 12:02:04;;;;;;;3.28;1.98;;;;;;;;;;5054383;28;20906;-86
2022/08/05 12:04:37;;;;;;;2.85;1.80;;;;;;;;;;5058491;28;20391;-84
2022/08/05 12:07:05;;;;;;;3.28;1.90;;;;;;;;;;5065545;28;20391;-84
2022/08/05 12:09:35;;;;;;;3.08;2.10;;;;;;;;;;5073956;28;20402;-82
2022/08/05 12:12:01;;;;;;;2.63;2.20;;;;;;;;;;5065651;28;20405;-85
2022/08/05 12:14:35;;;;;;;3.07;1.80;;;;;;;;;;5074033;28;20459;-85
2022/08/05 12:17:06;;;;;;;3.60;1.87;;;;;;;;;;5071900;28;20388;-86
2022/08/05 12:19:40;;;;;;;2.53;1.73;;;;;;;;;;5068365;28;20375;-83
2022/08/05 12:22:06;;;;;;;3.45;2.00;;;;;;;;;;5072819;28;20410;-84
2022/08/05 12:24:32;;;;;;;2.60;2.08;;;;;;;;;;5060715;28;20469;-86
2022/08/05 12:27:00;;;;;;;2.55;1.92;;;;;;;;;;5060128;28;20472;-84
2022/08/05 12:29:28;;;;;;;2.67;1.90;;;;;;;;;;5071701;28;20380;-85
2022/08/05 12:31:57;;;;;;;2.90;1.88;;;;;;;;;;5074107;28;20380;-87
2022/08/05 12:34:27;;;;;;;2.20;1.73;;;;;;;;;;5073870;28;20386;-85
2022/08/05 12:36:54;;;;;;;2.97;1.98;;;;;;;;;;5061200;28;20408;-85
2022/08/05 12:39:20;;;;;;;2.70;1.70;;;;;;;;;;5070780;28;20419;-85
2022/08/05 12:41:47;;;;;;;2.90;1.60;;;;;;;;;;5068849;28;20872;-86
2022/08/05 12:44:14;;;;;;;1.80;1.70;;;;;;;;;;5064068;28;20400;-86
2022/08/05 12:46:40;;;;;;;2.30;1.80;;;;;;;;;;5050087;28;20371;-85
2022/08/05 12:49:08;;;;;;;2.90;1.73;;;;;;;;;;5073495;28;20375;-87
2022/08/05 12:51:52;;;;;;;2.22;1.60;;;;;;;;;;5055493;28;20388;-86
2022/08/05 12:54:20;;;;;;;3.60;1.80;;;;;;;;;;5062672;28;20376;-86
2022/08/05 12:56:50;;;;;;;3.22;1.80;;;;;;;;;;5073364;28;20380;-86
2022/08/05 12:59:27;;;;;;;3.13;2.00;;;;;;;;;;5073207;28;20386;-85
2022/08/05 13:01:56;;;;;;;3.67;1.90;;;;;;;;;;5065643;28;20464;-86
2022/08/05 13:04:25;;;;;;;3.22;1.80;;;;;;;;;;5073325;28;20824;-85
2022/08/05 13:06:51;;;;;;;1.92;1.70;;;;;;;;;;5063966;28;20373;-85
2022/08/05 13:09:17;;;;;;;2.20;2.00;;;;;;;;;;5073267;28;20399;-85
2022/08/05 13:11:44;;;;;;;2.47;2.10;;;;;;;;;;5073151;28;20856;-86
2022/08/05 13:14:16;;;;;;;3.72;1.70;;;;;;;;;;5070474;28;20398;-85
2022/08/05 13:16:50;;;;;;;2.00;1.52;;;;;;;;;;5055248;28;20388;-85
2022/08/05 13:19:16;;;;;;;2.10;1.90;;;;;;;;;;5060284;28;20376;-85
2022/08/05 13:21:42;;;;;;;2.05;1.70;;;;;;;;;;5065599;28;20416;-85
2022/08/05 13:24:08;;;;;;;2.42;1.83;;;;;;;;;;5060947;28;20377;-85
2022/08/05 13:26:34;;;;;;;2.90;1.70;;;;;;;;;;5052657;28;20381;-86
2022/08/05 13:29:00;;;;;;;2.50;2.08;;;;;;;;;;5057578;28;20382;-85
2022/08/05 13:31:26;;;;;;;2.88;1.90;;;;;;;;;;5064166;28;20912;-85
2022/08/05 13:33:52;;;;;;;3.72;1.70;;;;;;;;;;5053783;28;20377;-85
2022/08/05 13:36:18;;;;;;;2.17;1.98;;;;;;;;;;5070912;28;20393;-86
2022/08/05 13:38:44;;;;;;;3.10;1.75;;;;;;;;;;5068282;28;20387;-86
2022/08/05 13:41:10;;;;;;;2.40;1.90;;;;;;;;;;5071467;28;20910;-86
2022/08/05 13:43:36;;;;;;;3.03;1.85;;;;;;;;;;5072566;28;20404;-87
2022/08/05 13:46:02;;;;;;;4.57;1.93;;;;;;;;;;5068665;28;20412;-85
2022/08/05 13:48:28;;;;;;;2.20;2.00;;;;;;;;;;5054305;28;20468;-85
2022/08/05 13:50:54;;;;;;;1.90;1.67;;;;;;;;;;5056723;28;20896;-85
2022/08/05 13:53:20;;;;;;;1.80;1.70;;;;;;;;;;5055795;28;20385;-85
2022/08/05 13:55:46;;;;;;;4.47;1.92;;;;;;;;;;5054439;28;20388;-84
2022/08/05 13:58:12;;;;;;;2.30;1.90;;;;;;;;;;5054106;28;20392;-86
2022/08/05 14:00:38;;;;;;;3.00;1.70;;;;;;;;;;5052456;28;20433;-84
2022/08/05 14:03:04;;;;;;;4.38;2.00;;;;;;;;;;5051031;28;20909;-86
2022/08/05 14:05:30;;;;;;;2.47;1.87;;;;;;;;;;5053845;28;20442;-86
2022/08/05 14:07:56;;;;;;;4.05;2.20;;;;;;;;;;5054607;28;20382;-86
2022/08/05 14:10:22;;;;;;;2.67;1.80;;;;;;;;;;5065926;28;20382;-85
2022/08/05 14:12:48;;;;;;;3.25;1.90;;;;;;;;;;5064889;28;20390;-86
2022/08/05 14:15:15;;;;;;;2.08;1.73;;;;;;;;;;5072258;28;20761;-86
2022/08/05 14:17:41;;;;;;;2.97;1.90;;;;;;;;;;5052345;28;20385;-86
2022/08/05 14:20:07;;;;;;;2.88;1.73;;;;;;;;;;5054297;28;20949;-86
2022/08/05 14:22:34;;;;;;;3.90;1.88;;;;;;;;;;5055845;28;20423;-86
2022/08/05 14:25:00;;;;;;;1.83;1.73;;;;;;;;;;5064037;28;20764;-87
2022/08/05 14:27:26;;;;;;;3.53;1.85;;;;;;;;;;5060191;28;20386;-86
2022/08/05 14:29:52;;;;;;;1.90;1.77;;;;;;;;;;5062878;28;20414;-84
2022/08/05 14:32:18;;;;;;;2.47;1.90;;;;;;;;;;5053414;28;20402;-84
2022/08/05 14:34:44;;;;;;;2.38;1.90;;;;;;;;;;5051671;28;20443;-84
2022/08/05 14:37:10;;;;;;;2.95;1.75;;;;;;;;;;5052704;28;20430;-83
2022/08/05 14:39:36;;;;;;;2.70;2.00;;;;;;;;;;5051776;28;20382;-83
2022/08/05 14:42:03;;;;;;;4.33;2.00;;;;;;;;;;5053000;28;20436;-85
2022/08/05 14:44:29;;;;;;;3.73;2.23;;;;;;;;;;5071989;28;20383;-87
2022/08/05 14:46:56;;;;;;;3.30;2.10;;;;;;;;;;5071900;28;20384;-83
2022/08/05 14:49:22;;;;;;;2.80;2.05;;;;;;;;;;5069597;28;20419;-84
2022/08/05 14:51:48;;;;;;;2.30;2.00;;;;;;;;;;5076026;28;20383;-86